Terminal Aerodrome Forecast
Issued by NWS Corpus Christi, TX

Home | Current Version | Previous Version | Text Only | Print | Product List | Glossary On
Versions: 1 2 3 4 5 6 7 8 9 10 11 12
000
FTUS44 KCRP 291728
TAFCRP
TAF
KCRP 291728Z 2918/3018 18008KT P6SM SCT040 BKN250
     FM292000 14015G20KT P6SM FEW050 SCT250
     FM300300 15009KT P6SM SCT250
     FM300800 VRB03KT P6SM SCT025
      TEMPO 3010/3014 BKN025
     FM301500 VRB05KT P6SM BKN025=

USA.gov is the U.S. government's official web portal to all federal, state and local government web resources and services.